Time;durP1;ratioP1;P1;durP2;ratioP2;P2;SDS_P1;SDS_P2;PMS_P1;PMS_P2;Temp;Humidity;BMP_temperature;BMP_pressure;BME280_temperature;BME280_humidity;BME280_pressure;Samples;Min_cycle;Max_cycle;Signal;HPM_P1;HPM_P2
2023/12/06 00:02:03;;;;;;;0.50;0.50;;;;;;;0.30;100.00;100912.66;5093208;28;20421;-46
2023/12/06 00:04:30;;;;;;;0.40;0.40;;;;;;;0.33;100.00;100912.84;5093629;28;20103;-50
2023/12/06 00:06:55;;;;;;;0.50;0.50;;;;;;;0.35;100.00;100915.53;5093714;28;20032;-51
2023/12/06 00:09:21;;;;;;;0.40;0.40;;;;;;;0.33;100.00;100907.78;5092714;28;20118;-48
2023/12/06 00:11:46;;;;;;;0.50;0.50;;;;;;;0.33;100.00;100912.84;5093474;28;20020;-48
2023/12/06 00:14:11;;;;;;;0.50;0.50;;;;;;;0.37;100.00;100911.41;5093068;28;20039;-48
2023/12/06 00:16:40;;;;;;;0.50;0.50;;;;;;;0.36;100.00;100912.19;5092909;28;20491;-50
2023/12/06 00:19:06;;;;;;;0.40;0.40;;;;;;;0.38;100.00;100915.72;5093630;28;20107;-49
2023/12/06 00:21:31;;;;;;;0.50;0.50;;;;;;;0.37;100.00;100915.63;5092989;28;20111;-50
2023/12/06 00:23:56;;;;;;;0.50;0.50;;;;;;;0.39;100.00;100926.75;5092548;28;20471;-49
2023/12/06 00:26:22;;;;;;;0.40;0.40;;;;;;;0.38;100.00;100930.94;5093247;28;20020;-49
2023/12/06 00:28:47;;;;;;;0.50;0.50;;;;;;;0.41;100.00;100931.16;5093120;28;20065;-48
2023/12/06 00:31:13;;;;;;;0.50;0.50;;;;;;;0.40;100.00;100928.50;5092407;28;20039;-50
2023/12/06 00:33:38;;;;;;;0.50;0.50;;;;;;;0.40;100.00;100933.56;5093336;28;20456;-50
2023/12/06 00:36:04;;;;;;;0.43;0.43;;;;;;;0.44;100.00;100945.69;5093140;28;20024;-50
2023/12/06 00:38:29;;;;;;;0.40;0.40;;;;;;;0.45;100.00;100940.75;5092111;28;20487;-50
2023/12/06 00:40:54;;;;;;;0.50;0.50;;;;;;;0.43;100.00;100949.03;5093026;28;20391;-48
2023/12/06 00:43:20;;;;;;;0.43;0.43;;;;;;;0.45;100.00;100944.94;5092702;28;20081;-46
2023/12/06 00:45:45;;;;;;;0.43;0.43;;;;;;;0.44;100.00;100945.69;5091701;28;20052;-50
2023/12/06 00:48:10;;;;;;;0.43;0.43;;;;;;;0.45;100.00;100955.06;5092831;28;20027;-50
2023/12/06 00:50:35;;;;;;;0.43;0.43;;;;;;;0.47;100.00;100956.09;5093044;28;20095;-48
2023/12/06 00:53:01;;;;;;;0.40;0.40;;;;;;;0.46;100.00;100954.31;5092165;28;20051;-50
2023/12/06 00:55:26;;;;;;;0.43;0.43;;;;;;;0.46;100.00;100961.91;5092494;28;20106;-50
2023/12/06 00:57:51;;;;;;;0.55;0.55;;;;;;;0.46;100.00;100961.91;5092254;28;20020;-48
2023/12/06 01:00:17;;;;;;;0.47;0.47;;;;;;;0.51;100.00;100967.34;5092533;28;20468;-49
2023/12/06 01:02:42;;;;;;;0.40;0.40;;;;;;;0.50;100.00;100958.81;5093019;28;20024;-50
2023/12/06 01:05:08;;;;;;;0.40;0.40;;;;;;;0.49;100.00;100964.66;5092123;28;20074;-50
2023/12/06 01:07:33;;;;;;;0.40;0.40;;;;;;;0.47;100.00;100972.16;5092975;28;20498;-50
2023/12/06 01:09:58;;;;;;;0.40;0.40;;;;;;;0.51;100.00;100977.47;5092821;28;20392;-49
2023/12/06 01:12:24;;;;;;;0.50;0.50;;;;;;;0.48;100.00;100983.22;5091737;28;20046;-49
2023/12/06 01:14:49;;;;;;;0.40;0.40;;;;;;;0.50;100.00;100986.72;5093022;28;20036;-51
2023/12/06 01:17:15;;;;;;;0.50;0.50;;;;;;;0.50;100.00;100976.56;5092263;28;20471;-49
2023/12/06 01:19:40;;;;;;;0.47;0.47;;;;;;;0.54;100.00;100987.84;5092008;28;20055;-51
2023/12/06 01:22:05;;;;;;;0.40;0.40;;;;;;;0.51;100.00;100988.50;5092593;28;20356;-48
2023/12/06 01:24:30;;;;;;;0.40;0.40;;;;;;;0.53;100.00;100988.59;5092350;28;20111;-51
2023/12/06 01:26:56;;;;;;;0.50;0.50;;;;;;;0.55;100.00;100997.22;5091792;28;20020;-50
2023/12/06 01:29:21;;;;;;;0.40;0.40;;;;;;;0.53;100.00;100997.09;5092164;28;20028;-50
2023/12/06 01:31:47;;;;;;;0.50;0.50;;;;;;;0.53;100.00;100994.56;5092552;28;20023;-49
2023/12/06 01:34:12;;;;;;;0.50;0.50;;;;;;;0.53;100.00;101001.28;5091456;28;20024;-51
2023/12/06 01:36:38;;;;;;;0.50;0.50;;;;;;;0.52;100.00;101002.94;5092676;28;20032;-50
2023/12/06 01:39:03;;;;;;;0.40;0.40;;;;;;;0.53;100.00;101012.31;5092516;28;20035;-50
2023/12/06 01:41:29;;;;;;;0.55;0.55;;;;;;;0.54;100.00;101006.44;5091401;28;20028;-51
2023/12/06 01:43:54;;;;;;;0.50;0.50;;;;;;;0.52;100.00;101005.47;5092448;28;20028;-50
2023/12/06 01:46:19;;;;;;;0.50;0.50;;;;;;;0.53;100.00;101016.50;5092147;28;20048;-50
2023/12/06 01:48:47;;;;;;;0.50;0.50;;;;;;;0.53;100.00;101022.47;5091858;28;20058;-47
2023/12/06 01:51:14;;;;;;;0.40;0.40;;;;;;;0.54;100.00;101016.59;5092020;28;20107;-50
2023/12/06 01:53:40;;;;;;;0.50;0.50;;;;;;;0.53;100.00;101013.97;5092510;28;20031;-51
2023/12/06 01:56:06;;;;;;;0.50;0.50;;;;;;;0.54;100.00;101026.75;5091600;28;20017;-48
2023/12/06 01:58:33;;;;;;;0.40;0.40;;;;;;;0.55;100.00;101022.56;5093765;28;20031;-50
2023/12/06 02:00:59;;;;;;;0.40;0.40;;;;;;;0.55;100.00;101025.97;5095932;28;20463;-48
2023/12/06 02:03:24;;;;;;;0.50;0.50;;;;;;;0.54;100.00;101024.19;5095057;28;20290;-50
2023/12/06 02:05:52;;;;;;;0.40;0.40;;;;;;;0.55;100.00;101028.50;5096008;28;20060;-49
2023/12/06 02:08:17;;;;;;;0.40;0.40;;;;;;;0.54;100.00;101031.81;5094934;28;20034;-50
2023/12/06 02:10:42;;;;;;;0.40;0.40;;;;;;;0.54;100.00;101036.00;5095852;28;20028;-49
2023/12/06 02:13:08;;;;;;;0.43;0.43;;;;;;;0.53;100.00;101035.16;5095722;28;20032;-49
2023/12/06 02:15:33;;;;;;;0.50;0.50;;;;;;;0.53;100.00;101036.78;5094903;28;20024;-51
2023/12/06 02:17:59;;;;;;;0.50;0.50;;;;;;;0.55;100.00;101036.13;5095861;28;20020;-48
2023/12/06 02:20:25;;;;;;;0.40;0.40;;;;;;;0.52;100.00;101038.44;5095281;28;20028;-48
2023/12/06 02:22:52;;;;;;;0.50;0.50;;;;;;;0.52;100.00;101046.06;5094888;28;20074;-50
2023/12/06 02:25:17;;;;;;;0.50;0.50;;;;;;;0.54;100.00;101049.56;5095164;28;20475;-48
2023/12/06 02:27:44;;;;;;;0.40;0.40;;;;;;;0.56;100.00;101052.25;5095645;28;20152;-49
2023/12/06 02:30:11;;;;;;;0.50;0.50;;;;;;;0.59;100.00;101043.19;5094440;28;20474;-48
2023/12/06 02:32:39;;;;;;;0.50;0.50;;;;;;;0.56;100.00;101055.66;5095428;28;20103;-50
2023/12/06 02:35:30;;;;;;;0.45;0.45;;;;;;;0.60;100.00;101050.03;5095459;28;20024;-49
2023/12/06 02:37:57;;;;;;;0.40;0.40;;;;;;;0.55;100.00;101056.41;5094377;28;20487;-49
2023/12/06 02:40:25;;;;;;;0.50;0.50;;;;;;;0.56;100.00;101042.97;5095054;28;20100;-50
2023/12/06 02:42:50;;;;;;;0.40;0.40;;;;;;;0.58;100.00;101049.03;5095145;28;20486;-50
2023/12/06 02:45:16;;;;;;;0.40;0.40;;;;;;;0.60;100.00;101050.03;5094246;28;20032;-50
2023/12/06 02:47:41;;;;;;;0.50;0.50;;;;;;;0.57;100.00;101042.19;5094900;28;20044;-48
2023/12/06 02:50:07;;;;;;;0.40;0.40;;;;;;;0.59;100.00;101038.09;5095161;28;20026;-50
2023/12/06 02:52:33;;;;;;;0.50;0.50;;;;;;;0.61;100.00;101044.19;5093972;28;20107;-50
2023/12/06 02:54:58;;;;;;;0.40;0.40;;;;;;;0.62;100.00;101047.59;5095277;28;20427;-49
2023/12/06 02:57:23;;;;;;;0.40;0.40;;;;;;;0.60;100.00;101047.47;5094507;28;20059;-49
2023/12/06 02:59:48;;;;;;;0.40;0.40;;;;;;;0.63;100.00;101050.25;5094532;28;20024;-50
2023/12/06 03:02:14;;;;;;;0.40;0.40;;;;;;;0.64;100.00;101048.59;5094482;28;20042;-51
2023/12/06 03:04:39;;;;;;;0.50;0.50;;;;;;;0.66;100.00;101039.47;5094115;28;20042;-50
2023/12/06 03:07:04;;;;;;;0.47;0.47;;;;;;;0.68;100.00;101047.16;5094686;28;20024;-50
2023/12/06 03:09:29;;;;;;;0.50;0.50;;;;;;;0.67;100.00;101045.41;5093908;28;20024;-50
2023/12/06 03:11:55;;;;;;;0.40;0.40;;;;;;;0.70;100.00;101050.69;5094100;28;20103;-51
2023/12/06 03:14:20;;;;;;;0.40;0.40;;;;;;;0.71;100.00;101043.22;5094220;28;20028;-46
2023/12/06 03:16:45;;;;;;;0.50;0.50;;;;;;;0.73;100.00;101040.78;5094757;28;20024;-49
2023/12/06 03:19:10;;;;;;;0.40;0.40;;;;;;;0.75;100.00;101044.28;5093363;28;20028;-50
2023/12/06 03:21:36;;;;;;;0.40;0.40;;;;;;;0.76;100.00;101053.66;5094386;28;20032;-51
2023/12/06 03:24:01;;;;;;;0.40;0.40;;;;;;;0.78;100.00;101059.75;5094602;28;20074;-50
2023/12/06 03:26:26;;;;;;;0.40;0.40;;;;;;;0.81;100.00;101059.97;5093569;28;20020;-50
2023/12/06 03:28:51;;;;;;;0.50;0.50;;;;;;;0.79;100.00;101056.44;5094617;28;20024;-48
2023/12/06 03:31:17;;;;;;;0.47;0.47;;;;;;;0.80;100.00;101064.16;5094176;28;20073;-49
2023/12/06 03:33:42;;;;;;;0.50;0.50;;;;;;;0.82;100.00;101066.81;5093459;28;20031;-50
2023/12/06 03:36:11;;;;;;;0.50;0.50;;;;;;;0.82;100.00;101074.41;5094168;28;20024;-50
2023/12/06 03:38:37;;;;;;;0.47;0.47;;;;;;;0.85;100.00;101077.16;5094265;28;20162;-47
2023/12/06 03:41:02;;;;;;;0.40;0.40;;;;;;;0.88;100.00;101072.34;5093381;28;20107;-48
2023/12/06 03:43:27;;;;;;;0.40;0.40;;;;;;;0.90;100.00;101073.31;5093874;28;20020;-50
2023/12/06 03:45:53;;;;;;;0.50;0.50;;;;;;;0.91;100.00;101072.53;5093809;28;20101;-50
2023/12/06 03:48:18;;;;;;;0.30;0.30;;;;;;;0.91;100.00;101072.53;5092756;28;20101;-47
2023/12/06 03:50:44;;;;;;;0.40;0.40;;;;;;;0.93;100.00;101071.00;5093861;28;20020;-49
2023/12/06 03:53:09;;;;;;;0.40;0.40;;;;;;;0.96;100.00;101080.50;5094030;28;20026;-47
2023/12/06 03:55:34;;;;;;;0.40;0.40;;;;;;;0.97;100.00;101078.06;5093194;28;20047;-48
2023/12/06 03:57:59;;;;;;;0.45;0.45;;;;;;;0.97;100.00;101088.22;5093602;28;20074;-50
2023/12/06 04:00:25;;;;;;;0.40;0.40;;;;;;;1.00;100.00;101086.69;5093411;28;20505;-50
2023/12/06 04:02:50;;;;;;;0.40;0.40;;;;;;;1.00;100.00;101085.00;5092832;28;20079;-50
2023/12/06 04:05:15;;;;;;;0.40;0.40;;;;;;;1.02;100.00;101090.19;5093356;28;20031;-50
2023/12/06 04:07:41;;;;;;;0.40;0.40;;;;;;;1.04;100.00;101088.66;5093536;28;20032;-50
2023/12/06 04:10:06;;;;;;;0.40;0.40;;;;;;;1.05;100.00;101092.97;5092920;28;20031;-50
2023/12/06 04:12:32;;;;;;;0.40;0.40;;;;;;;1.06;100.00;101089.63;5093645;28;20439;-50
2023/12/06 04:14:57;;;;;;;0.50;0.50;;;;;;;1.08;100.00;101093.19;5092847;28;20364;-49
2023/12/06 04:17:22;;;;;;;0.32;0.32;;;;;;;1.09;100.00;101095.81;5093210;28;20081;-51
2023/12/06 04:19:47;;;;;;;0.40;0.40;;;;;;;1.11;100.00;101103.53;5093272;28;20487;-51
2023/12/06 04:22:13;;;;;;;0.40;0.40;;;;;;;1.13;100.00;101102.00;5091633;28;20036;-52
2023/12/06 04:24:38;;;;;;;0.30;0.30;;;;;;;1.13;100.00;101110.50;5093514;28;20073;-49
2023/12/06 04:27:03;;;;;;;0.40;0.40;;;;;;;1.14;100.00;101108.84;5093479;28;20491;-51
2023/12/06 04:29:29;;;;;;;0.40;0.40;;;;;;;1.17;100.00;101105.66;5092151;28;20111;-50
2023/12/06 04:31:54;;;;;;;0.45;0.45;;;;;;;1.17;100.00;101101.44;5093126;28;20020;-50
2023/12/06 04:34:20;;;;;;;0.47;0.47;;;;;;;1.17;100.00;101109.06;5092697;28;20028;-51
2023/12/06 04:36:45;;;;;;;0.40;0.40;;;;;;;1.19;100.00;101109.16;5092216;28;20028;-50
2023/12/06 04:39:10;;;;;;;0.40;0.40;;;;;;;1.16;100.00;101104.75;5093007;28;20020;-51
2023/12/06 04:41:36;;;;;;;0.50;0.50;;;;;;;1.18;100.00;101110.84;5093200;28;20032;-50
2023/12/06 04:44:01;;;;;;;0.40;0.40;;;;;;;1.19;100.00;101110.06;5092404;28;20420;-49
2023/12/06 04:46:27;;;;;;;0.40;0.40;;;;;;;1.20;100.00;101116.00;5092588;28;20051;-49
2023/12/06 04:48:52;;;;;;;0.40;0.40;;;;;;;1.21;100.00;101113.59;5093064;28;20031;-50
2023/12/06 04:51:18;;;;;;;0.40;0.40;;;;;;;1.23;100.00;101121.34;5091918;28;20111;-49
2023/12/06 04:53:43;;;;;;;0.43;0.43;;;;;;;1.26;100.00;101116.47;5093158;28;20131;-50
2023/12/06 04:56:08;;;;;;;0.43;0.43;;;;;;;1.28;100.00;101120.88;5093175;28;20107;-50
2023/12/06 04:58:34;;;;;;;0.50;0.50;;;;;;;1.29;100.00;101117.56;5091785;28;20038;-50
2023/12/06 05:00:59;;;;;;;0.45;0.45;;;;;;;1.31;100.00;101131.25;5092803;28;20479;-49
2023/12/06 05:03:25;;;;;;;0.40;0.40;;;;;;;1.32;100.00;101132.13;5092551;28;20417;-50
2023/12/06 05:05:50;;;;;;;0.40;0.40;;;;;;;1.35;100.00;101131.47;5091892;28;20103;-49
2023/12/06 05:08:15;;;;;;;0.50;0.50;;;;;;;1.39;100.00;101133.44;5092512;28;20414;-49
2023/12/06 05:10:41;;;;;;;0.40;0.40;;;;;;;1.39;100.00;101129.25;5093092;28;20024;-49
2023/12/06 05:13:06;;;;;;;0.40;0.40;;;;;;;1.41;100.00;101132.78;5091989;28;20048;-46
2023/12/06 05:15:32;;;;;;;0.40;0.40;;;;;;;1.44;100.00;101134.66;5092442;28;20035;-49
2023/12/06 05:17:57;;;;;;;0.40;0.40;;;;;;;1.45;100.00;101136.44;5092634;28;20028;-50
2023/12/06 05:20:22;;;;;;;0.40;0.40;;;;;;;1.47;100.00;101139.94;5090982;28;20020;-51
2023/12/06 05:22:48;;;;;;;0.40;0.40;;;;;;;1.48;100.00;101140.09;5092875;28;20046;-50
2023/12/06 05:25:13;;;;;;;0.40;0.40;;;;;;;1.53;100.00;101147.13;5091809;28;20043;-50
2023/12/06 05:27:38;;;;;;;0.50;0.50;;;;;;;1.52;100.00;101141.16;5092340;28;20020;-50
2023/12/06 05:30:04;;;;;;;0.40;0.40;;;;;;;1.55;100.00;101146.47;5092683;28;20038;-51
2023/12/06 05:32:29;;;;;;;0.40;0.40;;;;;;;1.56;100.00;101153.31;5093292;28;20029;-47
2023/12/06 05:34:55;;;;;;;0.40;0.40;;;;;;;1.56;100.00;101148.25;5095756;28;20024;-51
2023/12/06 05:37:20;;;;;;;0.35;0.35;;;;;;;1.58;100.00;101151.75;5096562;28;20045;-50
2023/12/06 05:39:45;;;;;;;0.40;0.40;;;;;;;1.60;100.00;101150.22;5095964;28;20019;-50
2023/12/06 05:42:10;;;;;;;0.40;0.40;;;;;;;1.61;100.00;101152.00;5096162;28;20055;-50
2023/12/06 05:44:36;;;;;;;0.40;0.40;;;;;;;1.64;100.00;101158.94;5096474;28;20020;-50
2023/12/06 05:47:01;;;;;;;0.50;0.50;;;;;;;1.64;100.00;101157.28;5095457;28;20050;-50
2023/12/06 05:49:26;;;;;;;0.40;0.40;;;;;;;1.67;100.00;101158.28;5095542;28;20463;-51
2023/12/06 05:51:51;;;;;;;0.50;0.50;;;;;;;1.68;100.00;101163.47;5095981;28;20040;-50
2023/12/06 05:54:17;;;;;;;0.40;0.40;;;;;;;1.70;100.00;101163.56;5095334;28;20475;-49
2023/12/06 05:56:42;;;;;;;0.50;0.50;;;;;;;1.71;100.00;101163.66;5095909;28;20035;-49
2023/12/06 05:59:08;;;;;;;0.40;0.40;;;;;;;1.74;100.00;101160.47;5096133;28;20045;-48
2023/12/06 06:01:33;;;;;;;0.40;0.40;;;;;;;1.73;100.00;101167.22;5094722;28;20035;-50
2023/12/06 06:03:58;;;;;;;0.50;0.50;;;;;;;1.75;100.00;101174.94;5095660;28;20073;-49
2023/12/06 06:06:24;;;;;;;0.40;0.40;;;;;;;1.76;100.00;101171.63;5095677;28;20031;-49
2023/12/06 06:08:49;;;;;;;0.30;0.30;;;;;;;1.76;100.00;101169.09;5095017;28;20032;-50
2023/12/06 06:11:14;;;;;;;0.50;0.50;;;;;;;1.77;100.00;101173.38;5095548;28;20111;-50
2023/12/06 06:13:40;;;;;;;0.40;0.40;;;;;;;1.77;100.00;101169.19;5096121;28;20084;-50
2023/12/06 06:16:06;;;;;;;0.50;0.50;;;;;;;1.77;100.00;101168.28;5095083;28;20019;-49
2023/12/06 06:18:31;;;;;;;0.40;0.40;;;;;;;1.76;100.00;101172.50;5095237;28;20032;-49
2023/12/06 06:20:58;;;;;;;0.40;0.40;;;;;;;1.77;100.00;101174.28;5095470;28;20062;-47
2023/12/06 06:23:23;;;;;;;0.50;0.50;;;;;;;1.79;100.00;101182.00;5094791;28;20032;-49
2023/12/06 06:25:48;;;;;;;0.40;0.40;;;;;;;1.78;100.00;101182.75;5095464;28;20028;-46
2023/12/06 06:28:15;;;;;;;0.40;0.40;;;;;;;1.79;100.00;101187.09;5095154;28;20024;-49
2023/12/06 06:30:40;;;;;;;0.50;0.50;;;;;;;1.81;100.00;101190.63;5094828;28;20028;-51
2023/12/06 06:33:05;;;;;;;0.50;0.50;;;;;;;1.81;100.00;101203.34;5095460;28;20024;-48
2023/12/06 06:35:31;;;;;;;0.40;0.40;;;;;;;1.81;100.00;101195.72;5094167;28;20421;-49
2023/12/06 06:37:56;;;;;;;0.40;0.40;;;;;;;1.80;100.00;101199.03;5095523;28;20035;-49
2023/12/06 06:40:22;;;;;;;0.40;0.40;;;;;;;1.84;100.00;101206.06;5095077;28;20089;-50
2023/12/06 06:42:48;;;;;;;0.40;0.40;;;;;;;1.84;100.00;101207.75;5094626;28;20031;-49
2023/12/06 06:45:13;;;;;;;0.30;0.30;;;;;;;1.83;100.00;101211.94;5094084;28;20024;-48
2023/12/06 06:47:38;;;;;;;0.40;0.40;;;;;;;1.84;100.00;101211.16;5094481;28;20066;-49
2023/12/06 06:50:04;;;;;;;0.30;0.30;;;;;;;1.86;100.00;101213.81;5093430;28;20028;-47
2023/12/06 06:52:32;;;;;;;0.40;0.40;;;;;;;1.86;100.00;101219.78;5095105;28;20111;-50
2023/12/06 06:54:57;;;;;;;0.40;0.40;;;;;;;1.87;100.00;101219.00;5095434;28;20032;-46
2023/12/06 06:57:22;;;;;;;0.50;0.50;;;;;;;1.89;100.00;101219.13;5094063;28;20524;-50
2023/12/06 06:59:48;;;;;;;0.40;0.40;;;;;;;1.88;100.00;101217.34;5095066;28;20111;-51
2023/12/06 07:02:14;;;;;;;0.38;0.38;;;;;;;1.90;100.00;101223.41;5094522;28;20468;-49
2023/12/06 07:04:39;;;;;;;0.40;0.40;;;;;;;1.89;100.00;101220.00;5093642;28;20028;-50
2023/12/06 07:07:04;;;;;;;0.40;0.40;;;;;;;1.91;100.00;101221.00;5094373;28;20062;-49
2023/12/06 07:09:29;;;;;;;0.45;0.45;;;;;;;1.92;100.00;101222.75;5094603;28;20529;-46
2023/12/06 07:11:55;;;;;;;0.40;0.40;;;;;;;1.92;100.00;101225.28;5094141;28;20103;-48
2023/12/06 07:14:21;;;;;;;0.38;0.38;;;;;;;1.94;100.00;101227.97;5094240;28;20460;-47
2023/12/06 07:16:46;;;;;;;0.40;0.40;;;;;;;1.94;100.00;101236.44;5097813;28;20020;-49
2023/12/06 07:19:12;;;;;;;0.35;0.35;;;;;;;1.95;100.00;101225.50;5113419;28;20032;-50
2023/12/06 07:21:38;;;;;;;0.40;0.40;;;;;;;1.95;100.00;101224.63;5114712;28;20382;-48
2023/12/06 07:24:03;;;;;;;0.40;0.40;;;;;;;1.97;100.00;101231.56;5114879;28;20102;-51
2023/12/06 07:26:28;;;;;;;0.40;0.40;;;;;;;1.94;100.00;101233.91;5113754;28;20035;-49
2023/12/06 07:28:54;;;;;;;0.40;0.40;;;;;;;1.94;100.00;101233.91;5114787;28;20066;-50
2023/12/06 07:31:20;;;;;;;0.40;0.40;;;;;;;1.90;100.00;101237.03;5114554;28;20031;-49
2023/12/06 07:33:47;;;;;;;0.40;0.40;;;;;;;1.81;100.00;101236.38;5113547;28;20031;-49
2023/12/06 07:36:13;;;;;;;;;;;;;;;1.90;100.00;101237.03;5114989;28;20039;-45
2023/12/06 07:38:39;;;;;;;0.40;0.40;;;;;;;1.71;100.00;101241.56;5114273;28;19939;-50
2023/12/06 07:41:04;;;;;;;0.40;0.40;;;;;;;1.65;100.00;101254.69;5113821;28;20073;-47
2023/12/06 07:43:30;;;;;;;0.45;0.45;;;;;;;1.59;100.00;101256.81;5113793;28;20024;-45
2023/12/06 07:45:55;;;;;;;0.40;0.40;;;;;;;1.48;100.00;101266.19;5113551;28;20399;-50
2023/12/06 07:48:20;;;;;;;0.40;0.40;;;;;;;1.46;100.00;101262.66;5113535;28;20069;-47
2023/12/06 07:50:46;;;;;;;0.30;0.30;;;;;;;1.47;100.00;101260.22;5113806;28;20038;-50
2023/12/06 07:53:12;;;;;;;0.40;0.40;;;;;;;1.52;100.00;101262.22;5113397;28;20020;-48
2023/12/06 07:55:38;;;;;;;0.50;0.50;;;;;;;1.54;100.00;101265.78;5114298;28;20114;-46
2023/12/06 07:58:03;;;;;;;0.40;0.40;;;;;;;1.52;100.00;101254.59;5114229;28;20092;-47
2023/12/06 08:00:30;;;;;;;0.45;0.45;;;;;;;1.46;100.00;101267.75;5112804;28;20024;-44
2023/12/06 08:02:55;;;;;;;0.50;0.50;;;;;;;1.50;100.00;101279.91;5113332;28;20046;-47
2023/12/06 08:05:20;;;;;;;0.40;0.40;;;;;;;1.46;100.00;101275.38;5113103;28;20034;-48
2023/12/06 08:07:46;;;;;;;0.50;0.50;;;;;;;1.42;100.00;101270.81;5112017;28;20031;-44
2023/12/06 08:10:22;;;;;;;0.50;0.50;;;;;;;1.41;100.00;101274.16;5113028;28;20039;-43
2023/12/06 08:12:48;;;;;;;0.50;0.50;;;;;;;1.39;100.00;101285.84;5113691;28;20026;-45
2023/12/06 08:15:14;;;;;;;0.50;0.50;;;;;;;1.33;100.00;101277.75;5112902;28;20016;-44
2023/12/06 08:17:40;;;;;;;0.47;0.47;;;;;;;1.29;100.00;101285.16;5113752;28;20050;-44
2023/12/06 08:20:08;;;;;;;0.50;0.50;;;;;;;1.35;100.00;101288.94;5114004;28;20035;-43
2023/12/06 08:22:33;;;;;;;0.50;0.50;;;;;;;1.33;100.00;101290.47;5094804;28;20030;-44
2023/12/06 08:24:59;;;;;;;0.40;0.40;;;;;;;1.36;100.00;101305.94;5113759;28;20016;-44
2023/12/06 08:27:29;;;;;;;0.40;0.40;;;;;;;1.43;100.00;101292.91;5113563;28;20059;-44
2023/12/06 08:29:55;;;;;;;0.50;0.50;;;;;;;1.48;100.00;101299.22;5112768;28;20031;-44
2023/12/06 08:32:21;;;;;;;0.40;0.40;;;;;;;1.57;100.00;101299.88;5113527;28;20028;-44
2023/12/06 08:34:46;;;;;;;0.40;0.40;;;;;;;1.63;100.00;101302.88;5113566;28;20382;-45
2023/12/06 08:37:11;;;;;;;0.30;0.30;;;;;;;1.70;100.00;101300.78;5112276;28;20038;-45
2023/12/06 08:39:36;;;;;;;0.40;0.40;;;;;;;1.75;100.00;101307.09;5113456;28;20528;-47
2023/12/06 08:42:02;;;;;;;0.40;0.40;;;;;;;1.77;100.00;101308.06;5113322;28;20535;-45
2023/12/06 08:44:28;;;;;;;0.40;0.40;;;;;;;1.81;100.00;101307.53;5112743;28;20031;-47
2023/12/06 08:46:53;;;;;;;0.40;0.40;;;;;;;1.83;100.00;101307.63;5113341;28;20032;-44
2023/12/06 08:49:19;;;;;;;0.38;0.38;;;;;;;1.86;100.00;101307.84;5112209;28;20080;-44
2023/12/06 08:51:44;;;;;;;0.40;0.40;;;;;;;1.87;100.00;101315.56;5113258;28;20493;-46
2023/12/06 08:54:09;;;;;;;0.45;0.45;;;;;;;1.88;100.00;101319.88;5113035;28;20036;-45
2023/12/06 08:56:34;;;;;;;0.40;0.40;;;;;;;1.84;100.00;101317.91;5112559;28;20161;-44
2023/12/06 08:59:00;;;;;;;0.30;0.30;;;;;;;1.79;100.00;101322.66;5113197;28;20026;-46
2023/12/06 09:01:25;;;;;;;0.50;0.50;;;;;;;1.78;100.00;101317.47;5112726;28;20039;-45
2023/12/06 09:03:50;;;;;;;0.43;0.43;;;;;;;1.75;100.00;101332.50;5112651;28;20478;-45
2023/12/06 09:06:16;;;;;;;0.50;0.50;;;;;;;1.76;100.00;101335.13;5113715;28;20110;-45
2023/12/06 09:08:41;;;;;;;0.40;0.40;;;;;;;1.76;100.00;101330.06;5120057;28;20482;-45
2023/12/06 09:11:07;;;;;;;0.32;0.32;;;;;;;1.78;100.00;101332.69;5119348;28;20023;-44
2023/12/06 09:13:32;;;;;;;0.50;0.50;;;;;;;1.80;100.00;101326.09;5119671;28;20019;-45
2023/12/06 09:15:58;;;;;;;0.50;0.50;;;;;;;1.83;100.00;101336.47;5119885;28;20024;-46
2023/12/06 09:18:23;;;;;;;0.50;0.50;;;;;;;1.85;100.00;101340.00;5119023;28;20051;-45
2023/12/06 09:20:48;;;;;;;0.45;0.45;;;;;;;1.86;100.00;101341.78;5119897;28;20027;-44
2023/12/06 09:23:14;;;;;;;0.50;0.50;;;;;;;1.90;100.00;101348.84;5119493;28;20028;-44
2023/12/06 09:25:39;;;;;;;0.50;0.50;;;;;;;1.95;100.00;101352.63;5119054;28;20019;-44
2023/12/06 09:28:06;;;;;;;0.40;0.40;;;;;;;2.02;100.00;101348.00;5119759;28;20092;-45
2023/12/06 09:30:31;;;;;;;0.40;0.40;;;;;;;2.08;100.00;101353.47;5119582;28;20102;-45
2023/12/06 09:32:56;;;;;;;0.40;0.40;;;;;;;2.13;100.00;101352.16;5118870;28;20107;-45
2023/12/06 09:35:22;;;;;;;0.40;0.40;;;;;;;2.12;100.00;101350.41;5119587;28;20020;-47
2023/12/06 09:37:47;;;;;;;0.50;0.50;;;;;;;2.21;100.00;101358.69;5119877;28;20034;-45
2023/12/06 09:40:13;;;;;;;0.50;0.50;;;;;;;2.26;100.00;101349.72;5118536;28;20466;-46
2023/12/06 09:42:43;;;;;;;0.40;0.40;;;;;;;2.34;100.00;101351.91;5119541;28;20034;-48
2023/12/06 09:45:09;;;;;;;0.50;0.50;;;;;;;2.42;100.00;101355.91;5119434;28;20019;-45
2023/12/06 09:47:35;;;;;;;0.40;0.40;;;;;;;2.61;100.00;101361.50;5108223;28;20047;-48
2023/12/06 09:50:01;;;;;;;0.35;0.35;;;;;;;2.89;100.00;101368.53;5098593;28;20474;-45
2023/12/06 09:52:26;;;;;;;0.40;0.40;;;;;;;3.01;100.00;101371.03;5097478;28;20024;-48
2023/12/06 09:54:52;;;;;;;0.40;0.40;;;;;;;3.13;100.00;101369.31;5098512;28;20574;-48
2023/12/06 09:57:18;;;;;;;0.40;0.40;;;;;;;3.28;100.00;101383.88;5097677;28;20095;-47
2023/12/06 09:59:43;;;;;;;0.32;0.32;;;;;;;3.56;100.00;101385.72;5097344;28;20135;-48
2023/12/06 10:02:09;;;;;;;0.40;0.40;;;;;;;3.68;100.00;101388.19;5098327;28;20050;-46
2023/12/06 10:04:35;;;;;;;0.40;0.40;;;;;;;3.85;100.00;101387.66;5098413;28;20436;-46
2023/12/06 10:07:01;;;;;;;0.47;0.47;;;;;;;4.02;100.00;101377.66;5097169;28;20028;-47
2023/12/06 10:09:26;;;;;;;0.40;0.40;;;;;;;4.16;100.00;101384.53;5097672;28;20202;-47
2023/12/06 10:11:52;;;;;;;0.40;0.40;;;;;;;4.13;100.00;101381.75;5098441;28;20612;-48
2023/12/06 10:14:18;;;;;;;0.40;0.40;;;;;;;4.08;100.00;101380.59;5097614;28;20382;-50
2023/12/06 10:16:45;;;;;;;0.30;0.30;;;;;;;4.04;100.00;101383.72;5098424;28;20020;-48
2023/12/06 10:19:11;;;;;;;0.40;0.40;;;;;;;4.04;100.00;101378.63;5094537;28;20026;-48
2023/12/06 10:21:38;;;;;;;0.30;0.30;;;;;;;4.13;100.00;101384.31;5094340;28;20396;-49
2023/12/06 10:24:07;;;;;;;0.30;0.30;;;;;;;4.21;100.00;101387.38;5094955;28;20375;-49
2023/12/06 10:26:32;;;;;;;0.30;0.30;;;;;;;4.29;100.00;101381.97;5094682;28;20095;-46
2023/12/06 10:28:58;;;;;;;0.30;0.30;;;;;;;4.35;100.00;101380.59;5093962;28;20127;-48
2023/12/06 10:31:24;;;;;;;0.35;0.35;;;;;;;4.45;100.00;101378.75;5093850;28;20069;-46
2023/12/06 10:33:56;;;;;;;0.35;0.35;;;;;;;4.49;100.00;101379.78;5095470;28;20506;-50
2023/12/06 10:36:27;;;;;;;0.40;0.40;;;;;;;4.65;100.00;101376.53;5094531;28;20117;-47
2023/12/06 10:38:54;;;;;;;0.30;0.30;;;;;;;4.68;100.00;101386.06;5095435;28;20468;-46
2023/12/06 10:41:21;;;;;;;0.40;0.40;;;;;;;4.63;100.00;101377.22;5094918;28;20459;-52
2023/12/06 10:43:47;;;;;;;0.40;0.40;;;;;;;4.72;100.00;101382.91;5094459;28;20371;-47
2023/12/06 10:46:15;;;;;;;0.30;0.30;;;;;;;4.71;100.00;101386.25;5094806;28;20298;-46
2023/12/06 10:48:42;;;;;;;0.40;0.40;;;;;;;4.76;100.00;101380.66;5094361;28;20459;-48
2023/12/06 10:51:08;;;;;;;0.40;0.40;;;;;;;4.70;100.00;101379.34;5095079;28;20447;-50
2023/12/06 10:53:33;;;;;;;0.38;0.38;;;;;;;4.69;100.00;101382.72;5094841;28;20028;-47
2023/12/06 10:56:00;;;;;;;0.40;0.40;;;;;;;4.77;100.00;101378.97;5094120;28;20144;-50
2023/12/06 10:58:26;;;;;;;0.40;0.40;;;;;;;4.98;100.00;101371.72;5093928;28;20392;-47
2023/12/06 11:00:53;;;;;;;0.32;0.32;;;;;;;5.24;100.00;101370.75;5094575;28;20035;-49
2023/12/06 11:03:18;;;;;;;0.37;0.37;;;;;;;5.38;100.00;101373.22;5092459;28;20027;-47
2023/12/06 11:05:48;;;;;;;0.30;0.30;;;;;;;5.46;100.00;101377.09;5094700;28;20020;-48
2023/12/06 11:08:20;;;;;;;0.30;0.30;;;;;;;5.38;100.00;101375.78;5093160;28;20028;-52
2023/12/06 11:11:02;;;;;;;0.40;0.40;;;;;;;5.32;100.00;101373.75;5093330;28;20107;-47
2023/12/06 11:14:05;;;;;;;0.30;0.30;;;;;;;5.30;100.00;101377.03;5091969;28;20044;-45
2023/12/06 11:16:51;;;;;;;0.40;0.40;;;;;;;5.61;100.00;101384.81;5092573;28;20396;-49
2023/12/06 11:19:16;;;;;;;0.30;0.30;;;;;;;6.03;100.00;101379.53;5090632;28;20467;-48